createdAt,value
2023-05-25T00:01:01.164Z,17.10
2023-05-25T00:03:31.260Z,17.10
2023-05-25T00:06:01.534Z,16.57
2023-05-25T00:08:31.196Z,16.80
2023-05-25T00:10:59.373Z,18.37
2023-05-25T00:13:27.360Z,18.90
2023-05-25T00:15:55.215Z,18.47
2023-05-25T00:18:24.764Z,15.90
2023-05-25T00:20:54.122Z,17.37
2023-05-25T00:23:22.237Z,19.00
2023-05-25T00:25:51.509Z,20.10
2023-05-25T00:28:19.454Z,22.57
2023-05-25T00:30:47.387Z,17.43
2023-05-25T00:33:15.634Z,18.27
2023-05-25T00:35:44.788Z,22.83
2023-05-25T00:38:14.489Z,16.20
2023-05-25T00:40:42.639Z,16.07
2023-05-25T00:43:12.651Z,16.97
2023-05-25T00:45:41.751Z,16.43
2023-05-25T00:48:11.388Z,17.10
2023-05-25T00:50:40.705Z,19.00
2023-05-25T00:53:10.519Z,19.03
2023-05-25T00:55:42.391Z,16.07
2023-05-25T00:58:14.311Z,19.70
2023-05-25T01:00:46.700Z,17.10
2023-05-25T01:03:21.829Z,16.60
2023-05-25T01:05:55.299Z,15.73
2023-05-25T01:08:26.511Z,17.80
2023-05-25T01:10:55.207Z,19.97
2023-05-25T01:13:24.665Z,19.83
2023-05-25T01:15:53.611Z,18.20
2023-05-25T01:18:21.465Z,19.23
2023-05-25T01:21:02.029Z,21.20
2023-05-25T01:23:35.982Z,16.93
2023-05-25T01:26:10.417Z,22.30
2023-05-25T01:28:42.025Z,15.20
2023-05-25T01:31:10.583Z,17.87
2023-05-25T01:33:39.509Z,15.87
2023-05-25T01:36:08.913Z,18.70
2023-05-25T01:38:38.511Z,21.20
2023-05-25T01:41:06.526Z,18.33
2023-05-25T01:43:34.501Z,17.43
2023-05-25T01:46:11.827Z,17.97
2023-05-25T01:48:49.586Z,21.70
2023-05-25T01:51:26.728Z,18.63
2023-05-25T01:54:00.180Z,20.53
2023-05-25T01:56:31.998Z,19.30
2023-05-25T01:59:02.566Z,20.83
2023-05-25T02:01:34.576Z,20.50
2023-05-25T02:04:03.321Z,18.13
2023-05-25T02:06:36.514Z,18.90
2023-05-25T02:09:07.358Z,17.93
2023-05-25T02:11:35.343Z,19.27
2023-05-25T02:14:03.233Z,16.60
2023-05-25T02:16:31.186Z,18.67
2023-05-25T02:19:01.145Z,17.17
2023-05-25T02:21:29.175Z,19.90
2023-05-25T02:23:59.097Z,16.47
2023-05-25T02:26:27.366Z,16.70
2023-05-25T02:28:55.255Z,17.10
2023-05-25T02:31:23.142Z,15.30
2023-05-25T02:33:51.126Z,20.53
2023-05-25T02:36:21.108Z,18.57
2023-05-25T02:38:52.171Z,16.00
2023-05-25T02:41:22.155Z,18.40
2023-05-25T02:43:50.047Z,21.53
2023-05-25T02:46:17.964Z,19.80
2023-05-25T02:48:46.641Z,18.20
2023-05-25T02:51:14.915Z,19.67
2023-05-25T02:53:43.003Z,18.80
2023-05-25T02:56:11.323Z,20.20
2023-05-25T02:58:40.989Z,19.03
2023-05-25T03:01:18.717Z,19.30
2023-05-25T03:03:53.109Z,18.30
2023-05-25T03:06:26.205Z,18.60
2023-05-25T03:09:04.996Z,19.60
2023-05-25T03:11:33.538Z,18.70
2023-05-25T03:14:07.054Z,15.67
2023-05-25T03:16:36.643Z,18.33
2023-05-25T03:19:05.686Z,16.53
2023-05-25T03:21:36.211Z,22.20
2023-05-25T03:24:04.439Z,18.03
2023-05-25T03:26:32.829Z,19.80
2023-05-25T03:29:02.249Z,18.80
2023-05-25T03:31:32.067Z,19.00
2023-05-25T03:33:59.998Z,22.70
2023-05-25T03:36:28.409Z,14.47
2023-05-25T03:38:56.475Z,18.80
2023-05-25T03:41:24.496Z,17.97
2023-05-25T03:43:53.069Z,19.67
2023-05-25T03:46:21.753Z,23.47
2023-05-25T03:48:51.074Z,18.23
2023-05-25T03:51:19.115Z,15.70
2023-05-25T03:53:47.058Z,16.17
2023-05-25T03:56:14.928Z,16.07
2023-05-25T03:58:42.822Z,18.77
2023-05-25T04:01:12.459Z,17.50
2023-05-25T04:03:40.557Z,15.17
2023-05-25T04:06:10.076Z,14.33
2023-05-25T04:08:40.934Z,18.07
2023-05-25T04:11:08.855Z,19.40
2023-05-25T04:13:36.869Z,17.20
2023-05-25T04:16:07.091Z,16.93
2023-05-25T04:18:36.129Z,17.37
2023-05-25T04:21:07.040Z,17.30
2023-05-25T04:23:37.833Z,19.30
2023-05-25T04:26:10.170Z,17.83
2023-05-25T04:28:41.738Z,18.20
2023-05-25T04:31:29.925Z,17.13
2023-05-25T04:34:21.523Z,17.30
2023-05-25T04:37:05.663Z,20.00
2023-05-25T04:39:35.687Z,17.37
2023-05-25T04:42:04.597Z,17.77
2023-05-25T04:44:33.932Z,15.30
2023-05-25T04:47:03.051Z,18.93
2023-05-25T04:49:34.356Z,19.87
2023-05-25T04:52:02.348Z,19.80
2023-05-25T04:54:31.880Z,17.33
2023-05-25T04:57:04.222Z,17.83
2023-05-25T04:59:33.176Z,15.63
2023-05-25T05:02:01.626Z,17.57
2023-05-25T05:04:30.423Z,16.37
2023-05-25T05:06:59.858Z,16.83
2023-05-25T05:09:30.408Z,14.63
2023-05-25T05:12:00.968Z,15.77
2023-05-25T05:14:31.810Z,18.47
2023-05-25T05:17:00.011Z,21.63
2023-05-25T05:19:29.333Z,26.17
2023-05-25T05:21:57.463Z,20.10
2023-05-25T05:24:27.250Z,24.70
2023-05-25T05:26:58.305Z,17.70
2023-05-25T05:29:40.950Z,17.80
2023-05-25T05:32:09.434Z,18.70
2023-05-25T05:34:37.592Z,19.40
2023-05-25T05:37:10.560Z,17.70
2023-05-25T05:39:38.708Z,17.17
2023-05-25T05:42:08.155Z,16.80
2023-05-25T05:44:36.289Z,14.60
2023-05-25T05:47:06.570Z,13.70
2023-05-25T05:49:35.378Z,12.80
2023-05-25T05:52:04.490Z,13.53
2023-05-25T05:54:33.647Z,14.67
2023-05-25T05:57:07.119Z,14.17
2023-05-25T05:59:35.685Z,17.23
2023-05-25T06:02:05.267Z,17.03
2023-05-25T06:04:33.369Z,15.20
2023-05-25T06:07:01.255Z,15.50
2023-05-25T06:09:29.273Z,11.67
2023-05-25T06:12:01.647Z,16.47
2023-05-25T06:14:30.231Z,11.87
2023-05-25T06:17:01.850Z,14.20
2023-05-25T06:19:41.912Z,13.73
2023-05-25T06:22:09.903Z,15.10
2023-05-25T06:24:37.845Z,13.10
2023-05-25T06:27:06.893Z,10.97
2023-05-25T06:29:35.096Z,11.33
2023-05-25T06:32:04.739Z,11.20
2023-05-25T06:34:37.906Z,10.90
2023-05-25T06:37:07.101Z,15.57
2023-05-25T06:39:36.249Z,10.20
2023-05-25T06:42:04.884Z,11.00
2023-05-25T06:44:35.205Z,10.73
2023-05-25T06:47:04.087Z,9.60
2023-05-25T06:49:32.745Z,10.83
2023-05-25T06:52:02.446Z,10.90
2023-05-25T06:54:31.021Z,11.10
2023-05-25T06:56:59.213Z,10.07
2023-05-25T06:59:27.196Z,11.70
2023-05-25T07:01:56.206Z,10.77
2023-05-25T07:04:24.410Z,10.73
2023-05-25T07:06:53.200Z,9.80
2023-05-25T07:09:22.598Z,12.47
2023-05-25T07:11:50.648Z,12.17
2023-05-25T07:14:18.989Z,10.03
2023-05-25T07:16:46.857Z,11.30
2023-05-25T07:19:15.020Z,12.23
2023-05-25T07:21:42.964Z,10.63
2023-05-25T07:24:10.988Z,10.70
2023-05-25T07:26:40.505Z,11.50
2023-05-25T07:29:08.607Z,11.20
2023-05-25T07:31:39.104Z,13.30
2023-05-25T07:34:07.147Z,10.17
2023-05-25T07:36:35.147Z,8.43
2023-05-25T07:39:03.189Z,9.87
2023-05-25T07:41:31.276Z,9.57
2023-05-25T07:44:00.694Z,10.70
2023-05-25T07:46:28.795Z,11.57
2023-05-25T07:48:58.354Z,9.40
2023-05-25T07:51:27.148Z,9.93
2023-05-25T07:53:55.364Z,11.97
2023-05-25T07:56:23.451Z,12.80
2023-05-25T07:58:51.404Z,11.20
2023-05-25T08:01:20.701Z,9.13
2023-05-25T08:03:50.150Z,9.10
2023-05-25T08:06:18.435Z,12.93
2023-05-25T08:08:47.018Z,11.87
2023-05-25T08:11:17.240Z,9.30
2023-05-25T08:13:45.334Z,9.97
2023-05-25T08:16:13.238Z,12.40
2023-05-25T08:18:46.551Z,9.80
2023-05-25T08:21:14.801Z,12.93
2023-05-25T08:23:43.900Z,7.63
2023-05-25T08:26:31.180Z,9.50
2023-05-25T08:29:02.282Z,8.80
2023-05-25T08:31:30.369Z,7.20
2023-05-25T08:34:00.419Z,8.40
2023-05-25T08:36:28.678Z,9.87
2023-05-25T08:38:57.096Z,8.63
2023-05-25T08:41:25.120Z,8.53
2023-05-25T08:43:53.245Z,7.57
2023-05-25T08:46:30.876Z,7.90
2023-05-25T08:49:05.999Z,9.13
2023-05-25T08:51:38.065Z,7.30
2023-05-25T08:54:10.669Z,8.23
2023-05-25T08:56:46.281Z,7.23
2023-05-25T08:59:24.292Z,6.60
2023-05-25T09:02:09.742Z,6.40
2023-05-25T09:04:39.842Z,7.70
2023-05-25T09:07:10.809Z,7.53
2023-05-25T09:09:40.433Z,7.23
2023-05-25T09:12:09.462Z,8.27
2023-05-25T09:14:39.776Z,6.13
2023-05-25T09:17:08.015Z,7.73
2023-05-25T09:19:37.534Z,7.60
2023-05-25T09:22:15.049Z,8.93
2023-05-25T09:24:45.334Z,7.53
2023-05-25T09:27:17.400Z,8.83
2023-05-25T09:29:45.291Z,9.53
2023-05-25T09:32:13.828Z,7.93
2023-05-25T09:34:44.971Z,7.50
2023-05-25T09:37:15.400Z,6.27
2023-05-25T09:39:44.643Z,8.53
2023-05-25T09:42:13.419Z,7.53
2023-05-25T09:44:42.770Z,6.93
2023-05-25T09:47:13.879Z,7.03
2023-05-25T09:49:44.447Z,7.13
2023-05-25T09:52:15.775Z,7.63
2023-05-25T09:54:45.778Z,7.47
2023-05-25T09:57:13.750Z,6.27
2023-05-25T09:59:42.831Z,7.10
2023-05-25T10:02:10.836Z,6.67
2023-05-25T10:04:38.854Z,8.80
2023-05-25T10:07:07.217Z,7.47
2023-05-25T10:09:41.641Z,7.33
2023-05-25T10:12:10.262Z,7.00
2023-05-25T10:14:39.237Z,6.53
2023-05-25T10:17:07.992Z,8.17
2023-05-25T10:19:41.485Z,7.10
2023-05-25T10:22:16.911Z,9.00
2023-05-25T10:24:54.764Z,7.63
2023-05-25T10:27:27.538Z,6.90
2023-05-25T10:29:57.431Z,8.37
2023-05-25T10:32:27.199Z,7.53
2023-05-25T10:34:57.858Z,6.47
2023-05-25T10:37:28.161Z,9.00
2023-05-25T10:39:59.100Z,8.27
2023-05-25T10:42:27.993Z,6.83
2023-05-25T10:44:56.655Z,7.97
2023-05-25T10:47:25.677Z,6.33
2023-05-25T10:49:55.371Z,9.23
2023-05-25T10:52:27.662Z,8.33
2023-05-25T10:55:01.549Z,8.77
2023-05-25T10:57:29.911Z,6.53
2023-05-25T11:00:06.102Z,9.70
2023-05-25T11:02:50.285Z,9.03
2023-05-25T11:05:39.296Z,7.73
2023-05-25T11:08:09.087Z,7.37
2023-05-25T11:10:56.366Z,7.60
2023-05-25T11:13:37.048Z,6.50
2023-05-25T11:16:13.549Z,6.53
2023-05-25T11:18:43.675Z,6.60
2023-05-25T11:21:16.683Z,6.03
2023-05-25T11:23:55.514Z,6.47
2023-05-25T11:26:26.496Z,7.93
2023-05-25T11:28:55.155Z,6.80
2023-05-25T11:31:31.603Z,5.97
2023-05-25T11:34:02.167Z,6.80
2023-05-25T11:36:31.609Z,6.73
2023-05-25T11:39:06.538Z,8.00
2023-05-25T11:41:42.243Z,8.80
2023-05-25T11:44:10.205Z,8.47
2023-05-25T11:46:38.751Z,7.50
2023-05-25T11:49:06.912Z,16.40
2023-05-25T11:51:36.271Z,8.50
2023-05-25T11:54:04.435Z,7.13
2023-05-25T11:56:35.875Z,9.50
2023-05-25T11:59:08.760Z,9.90
2023-05-25T12:01:36.743Z,7.40
2023-05-25T12:04:09.930Z,10.00
2023-05-25T12:06:38.314Z,7.90
2023-05-25T12:09:12.841Z,10.73
2023-05-25T12:11:45.354Z,8.07
2023-05-25T12:14:15.537Z,8.97
2023-05-25T12:16:43.917Z,9.33
2023-05-25T12:19:12.756Z,8.90
2023-05-25T12:21:41.955Z,9.73
2023-05-25T12:24:12.611Z,8.47
2023-05-25T12:26:49.082Z,8.07
2023-05-25T12:29:18.548Z,9.63
2023-05-25T12:31:46.500Z,7.13
2023-05-25T12:34:15.824Z,7.73
2023-05-25T12:36:46.319Z,8.13
2023-05-25T12:39:16.012Z,7.83
2023-05-25T12:41:49.258Z,9.33
2023-05-25T12:44:25.396Z,8.13
2023-05-25T12:46:54.671Z,9.40
2023-05-25T12:49:27.329Z,9.13
2023-05-25T12:51:55.506Z,8.80
2023-05-25T12:54:45.099Z,11.53
2023-05-25T12:57:15.086Z,7.27
2023-05-25T12:59:46.232Z,8.30
2023-05-25T13:02:15.606Z,7.60
2023-05-25T13:04:44.571Z,9.80
2023-05-25T13:07:12.832Z,10.67
2023-05-25T13:09:40.803Z,8.77
2023-05-25T13:12:09.457Z,6.73
2023-05-25T13:14:37.484Z,7.20
2023-05-25T13:17:07.155Z,6.70
2023-05-25T13:19:35.194Z,7.40
2023-05-25T13:22:03.191Z,8.00
2023-05-25T13:24:31.150Z,8.73
2023-05-25T13:26:59.058Z,7.53
2023-05-25T13:29:26.962Z,8.43
2023-05-25T13:31:54.852Z,9.43
2023-05-25T13:34:24.144Z,11.17
2023-05-25T13:36:52.035Z,12.10
2023-05-25T13:39:21.987Z,9.63
2023-05-25T13:41:49.945Z,8.73
2023-05-25T13:44:18.001Z,8.07
2023-05-25T13:46:46.801Z,10.10
2023-05-25T13:49:16.225Z,7.50
2023-05-25T13:51:45.617Z,11.37
2023-05-25T13:54:13.703Z,9.03
2023-05-25T13:56:42.455Z,9.47
2023-05-25T13:59:10.751Z,11.17
2023-05-25T14:01:38.699Z,11.93
2023-05-25T14:04:06.692Z,8.70
2023-05-25T14:06:34.950Z,9.90
2023-05-25T14:09:04.338Z,11.00
2023-05-25T14:11:32.696Z,8.77
2023-05-25T14:14:00.678Z,9.47
2023-05-25T14:16:28.881Z,10.97
2023-05-25T14:18:57.383Z,10.10
2023-05-25T14:21:25.358Z,10.33
2023-05-25T14:23:53.283Z,7.57
2023-05-25T14:26:23.010Z,10.97
2023-05-25T14:28:51.345Z,10.60
2023-05-25T14:31:19.428Z,7.60
2023-05-25T14:33:47.503Z,8.53
2023-05-25T14:36:15.492Z,8.10
2023-05-25T14:38:44.732Z,9.93
2023-05-25T14:41:12.605Z,9.87
2023-05-25T14:43:42.221Z,9.30
2023-05-25T14:46:10.577Z,10.50
2023-05-25T14:48:38.500Z,10.23
2023-05-25T14:51:06.506Z,8.00
2023-05-25T14:53:36.619Z,16.23
2023-05-25T14:56:04.581Z,7.60
2023-05-25T14:58:32.876Z,9.20
2023-05-25T15:01:02.136Z,8.80
2023-05-25T15:03:30.259Z,8.27
2023-05-25T15:05:58.281Z,7.63
2023-05-25T15:08:26.122Z,12.83
2023-05-25T15:10:54.173Z,7.77
2023-05-25T15:13:22.707Z,11.53
2023-05-25T15:15:52.081Z,10.70
2023-05-25T15:18:21.494Z,7.40
2023-05-25T15:20:49.429Z,8.83
2023-05-25T15:23:17.459Z,7.40
2023-05-25T15:25:45.500Z,10.23
2023-05-25T15:28:13.370Z,10.53
2023-05-25T15:30:41.330Z,11.67
2023-05-25T15:33:09.604Z,10.60
2023-05-25T15:35:38.892Z,8.67
2023-05-25T15:38:06.926Z,15.83
2023-05-25T15:40:37.001Z,9.07
2023-05-25T15:43:04.950Z,9.20
2023-05-25T15:45:32.933Z,11.57
2023-05-25T15:48:00.927Z,9.73
2023-05-25T15:50:28.861Z,7.87
2023-05-25T15:52:58.193Z,7.93
2023-05-25T15:55:43.171Z,13.57
2023-05-25T15:58:12.413Z,11.27
2023-05-25T16:00:40.392Z,11.40
2023-05-25T16:03:08.417Z,9.90
2023-05-25T16:05:36.325Z,10.00
2023-05-25T16:08:05.663Z,9.47
2023-05-25T16:10:33.607Z,8.30
2023-05-25T16:13:01.706Z,11.90
2023-05-25T16:15:29.707Z,9.93
2023-05-25T16:17:57.566Z,9.73
2023-05-25T16:20:25.464Z,8.40
2023-05-25T16:22:53.382Z,8.97
2023-05-25T16:25:22.606Z,8.40
2023-05-25T16:27:50.596Z,9.50
2023-05-25T16:30:18.595Z,9.30
2023-05-25T16:32:46.503Z,9.30
2023-05-25T16:35:14.482Z,9.20
2023-05-25T16:37:42.374Z,11.43
2023-05-25T16:40:10.993Z,10.50
2023-05-25T16:42:40.340Z,11.30
2023-05-25T16:45:09.201Z,12.80
2023-05-25T16:47:37.185Z,9.70
2023-05-25T16:50:05.928Z,10.43
2023-05-25T16:52:33.785Z,10.40
2023-05-25T16:55:01.872Z,11.40
2023-05-25T16:57:29.848Z,11.87
2023-05-25T16:59:59.123Z,9.80
2023-05-25T17:02:27.199Z,11.03
2023-05-25T17:04:55.153Z,13.07
2023-05-25T17:07:23.062Z,10.27
2023-05-25T17:09:50.990Z,10.57
2023-05-25T17:12:18.903Z,11.50
2023-05-25T17:14:46.881Z,10.40
2023-05-25T17:17:16.484Z,14.27
2023-05-25T17:19:44.399Z,14.67
2023-05-25T17:22:12.468Z,11.87
2023-05-25T17:24:40.357Z,13.23
2023-05-25T17:27:08.228Z,10.30
2023-05-25T17:29:36.842Z,12.67
2023-05-25T17:32:05.019Z,12.90
2023-05-25T17:34:34.426Z,11.23
2023-05-25T17:37:02.374Z,12.23
2023-05-25T17:39:30.340Z,13.47
2023-05-25T17:41:58.308Z,14.03
2023-05-25T17:44:26.896Z,14.60
2023-05-25T17:46:54.914Z,11.17
2023-05-25T17:49:22.894Z,13.23
2023-05-25T17:51:52.303Z,15.60
2023-05-25T17:54:25.518Z,12.57
2023-05-25T17:56:53.726Z,12.10
2023-05-25T17:59:21.836Z,15.83
2023-05-25T18:01:49.989Z,13.60
2023-05-25T18:04:19.491Z,12.93
2023-05-25T18:06:49.752Z,12.60
2023-05-25T18:09:19.200Z,14.37
2023-05-25T18:11:48.116Z,17.73
2023-05-25T18:14:15.999Z,13.60
2023-05-25T18:16:44.763Z,17.27
2023-05-25T18:19:15.199Z,17.63
2023-05-25T18:21:43.185Z,17.17
2023-05-25T18:24:11.248Z,19.47
2023-05-25T18:26:41.620Z,16.57
2023-05-25T18:29:09.731Z,18.00
2023-05-25T18:31:37.869Z,16.30
2023-05-25T18:34:07.494Z,16.53
2023-05-25T18:36:36.363Z,19.80
2023-05-25T18:39:05.177Z,15.93
2023-05-25T18:41:33.142Z,19.53
2023-05-25T18:44:02.423Z,13.83
2023-05-25T18:46:30.546Z,17.13
2023-05-25T18:48:58.565Z,16.30
2023-05-25T18:51:26.834Z,18.23
2023-05-25T18:53:54.766Z,17.27
2023-05-25T18:56:22.813Z,17.50
2023-05-25T18:58:52.062Z,16.27
2023-05-25T19:01:21.418Z,15.57
2023-05-25T19:03:49.428Z,16.70
2023-05-25T19:06:17.411Z,14.93
2023-05-25T19:08:45.281Z,18.47
2023-05-25T19:11:14.462Z,18.20
2023-05-25T19:13:42.491Z,20.10
2023-05-25T19:16:10.382Z,14.03
2023-05-25T19:18:39.851Z,18.33
2023-05-25T19:21:07.859Z,16.37
2023-05-25T19:23:36.115Z,18.27
2023-05-25T19:26:04.019Z,16.40
2023-05-25T19:28:31.998Z,16.67
2023-05-25T19:31:00.940Z,15.83
2023-05-25T19:33:28.934Z,18.50
2023-05-25T19:35:58.230Z,15.50
2023-05-25T19:38:28.846Z,19.00
2023-05-25T19:41:02.422Z,16.13
2023-05-25T19:43:30.270Z,16.20
2023-05-25T19:45:58.261Z,17.87
2023-05-25T19:48:27.405Z,17.97
2023-05-25T19:50:55.477Z,19.47
2023-05-25T19:53:24.701Z,18.47
2023-05-25T19:55:52.592Z,15.20
2023-05-25T19:58:20.489Z,17.20
2023-05-25T20:00:48.528Z,15.30
2023-05-25T20:03:17.774Z,20.43
2023-05-25T20:05:46.422Z,17.60
2023-05-25T20:08:14.503Z,20.50
2023-05-25T20:10:44.887Z,19.63
2023-05-25T20:13:12.826Z,20.93
2023-05-25T20:15:40.735Z,17.00
2023-05-25T20:18:08.731Z,18.30
2023-05-25T20:20:36.803Z,17.30
2023-05-25T20:23:05.034Z,19.43
2023-05-25T20:25:33.014Z,18.00
2023-05-25T20:28:02.317Z,22.40
2023-05-25T20:30:30.479Z,20.17
2023-05-25T20:32:58.419Z,20.90
2023-05-25T20:35:26.466Z,21.60
2023-05-25T20:37:54.322Z,19.00
2023-05-25T20:40:22.337Z,22.67
2023-05-25T20:42:50.191Z,20.53
2023-05-25T20:45:19.480Z,22.20
2023-05-25T20:47:47.513Z,19.20
2023-05-25T20:50:15.532Z,23.03
2023-05-25T20:52:43.413Z,19.37
2023-05-25T20:55:11.449Z,23.67
2023-05-25T20:57:39.388Z,24.20
2023-05-25T21:00:08.445Z,22.03
2023-05-25T21:02:37.744Z,18.43
2023-05-25T21:05:06.482Z,21.77
2023-05-25T21:07:34.412Z,25.93
2023-05-25T21:10:02.898Z,22.10
2023-05-25T21:12:32.061Z,22.97
2023-05-25T21:15:00.074Z,22.87
2023-05-25T21:17:29.423Z,23.17
2023-05-25T21:19:58.993Z,22.80
2023-05-25T21:22:27.108Z,30.20
2023-05-25T21:24:55.148Z,22.90
2023-05-25T21:27:23.465Z,24.77
2023-05-25T21:29:51.340Z,21.80
2023-05-25T21:32:19.276Z,23.33
2023-05-25T21:34:47.124Z,25.30
2023-05-25T21:37:16.398Z,24.03
2023-05-25T21:39:44.963Z,23.70
2023-05-25T21:42:12.904Z,23.63
2023-05-25T21:44:40.795Z,26.67
2023-05-25T21:47:08.794Z,23.40
2023-05-25T21:49:36.698Z,23.80
2023-05-25T21:52:20.774Z,22.93
2023-05-25T21:54:48.817Z,25.70
2023-05-25T21:57:16.792Z,21.87
2023-05-25T21:59:44.668Z,19.47
2023-05-25T22:02:12.665Z,22.60
2023-05-25T22:04:40.605Z,27.40
2023-05-25T22:07:08.467Z,27.43
2023-05-25T22:09:37.818Z,23.30
2023-05-25T22:12:06.782Z,27.33
2023-05-25T22:14:34.736Z,23.40
2023-05-25T22:17:02.824Z,22.30
2023-05-25T22:19:31.100Z,20.80
2023-05-25T22:21:59.016Z,25.00
2023-05-25T22:24:26.952Z,23.93
2023-05-25T22:26:56.260Z,26.10
2023-05-25T22:29:24.149Z,19.00
2023-05-25T22:31:52.125Z,23.90
2023-05-25T22:34:19.996Z,23.30
2023-05-25T22:36:47.863Z,23.30
2023-05-25T22:39:15.825Z,20.20
2023-05-25T22:41:43.712Z,20.40
2023-05-25T22:44:13.022Z,20.73
2023-05-25T22:46:40.967Z,19.80
2023-05-25T22:49:08.908Z,21.50
2023-05-25T22:51:37.326Z,20.97
2023-05-25T22:54:05.222Z,20.30
2023-05-25T22:56:33.073Z,19.47
2023-05-25T22:59:00.900Z,20.53
2023-05-25T23:01:31.480Z,20.83
2023-05-25T23:04:00.437Z,20.17
2023-05-25T23:06:28.422Z,19.73
2023-05-25T23:08:56.380Z,19.47
2023-05-25T23:11:25.375Z,21.13
2023-05-25T23:13:54.721Z,20.43
2023-05-25T23:16:22.726Z,16.20
2023-05-25T23:18:57.541Z,17.77
2023-05-25T23:21:29.678Z,19.17
2023-05-25T23:23:59.532Z,18.80
2023-05-25T23:26:28.539Z,19.10
2023-05-25T23:28:56.795Z,17.40
2023-05-25T23:31:24.827Z,19.70
2023-05-25T23:33:54.190Z,19.00
2023-05-25T23:36:22.077Z,14.27
2023-05-25T23:38:50.013Z,17.90
2023-05-25T23:41:18.027Z,17.00
2023-05-25T23:43:46.422Z,17.47
2023-05-25T23:46:16.308Z,19.13
2023-05-25T23:48:44.425Z,18.60
2023-05-25T23:51:13.729Z,19.40
2023-05-25T23:53:41.626Z,19.13
2023-05-25T23:56:09.594Z,18.27
2023-05-25T23:58:37.493Z,16.93
